sensor_id;sensor_type;location;lat;lon;timestamp;temperature;humidity
8220;DHT22;4151;51.110;7.020;2023-02-25T00:01:10;3.70;99.90
8220;DHT22;4151;51.110;7.020;2023-02-25T00:03:36;3.70;99.90
8220;DHT22;4151;51.110;7.020;2023-02-25T00:06:03;3.70;99.90
8220;DHT22;4151;51.110;7.020;2023-02-25T00:08:29;3.70;99.90
8220;DHT22;4151;51.110;7.020;2023-02-25T00:11:00;3.70;99.90
8220;DHT22;4151;51.110;7.020;2023-02-25T00:13:26;3.70;99.90
8220;DHT22;4151;51.110;7.020;2023-02-25T00:15:52;3.70;99.90
8220;DHT22;4151;51.110;7.020;2023-02-25T00:18:18;3.80;99.90
8220;DHT22;4151;51.110;7.020;2023-02-25T00:20:43;3.80;99.90
8220;DHT22;4151;51.110;7.020;2023-02-25T00:23:09;3.80;99.90
8220;DHT22;4151;51.110;7.020;2023-02-25T00:25:34;3.80;99.90
8220;DHT22;4151;51.110;7.020;2023-02-25T00:28:00;3.80;99.90
8220;DHT22;4151;51.110;7.020;2023-02-25T00:30:29;3.70;99.90
8220;DHT22;4151;51.110;7.020;2023-02-25T00:32:55;3.80;99.90
8220;DHT22;4151;51.110;7.020;2023-02-25T00:35:20;3.70;99.90
8220;DHT22;4151;51.110;7.020;2023-02-25T00:37:46;3.70;99.90
8220;DHT22;4151;51.110;7.020;2023-02-25T00:40:12;3.70;99.90
8220;DHT22;4151;51.110;7.020;2023-02-25T00:42:41;3.70;99.90
8220;DHT22;4151;51.110;7.020;2023-02-25T00:45:08;3.70;99.90
8220;DHT22;4151;51.110;7.020;2023-02-25T00:47:33;3.70;99.90
8220;DHT22;4151;51.110;7.020;2023-02-25T00:49:59;3.80;99.90
8220;DHT22;4151;51.110;7.020;2023-02-25T00:52:24;3.80;99.90
8220;DHT22;4151;51.110;7.020;2023-02-25T00:54:50;3.80;99.90
8220;DHT22;4151;51.110;7.020;2023-02-25T00:57:16;3.80;99.90
8220;DHT22;4151;51.110;7.020;2023-02-25T00:59:41;3.80;99.90
8220;DHT22;4151;51.110;7.020;2023-02-25T01:02:07;3.70;99.90
8220;DHT22;4151;51.110;7.020;2023-02-25T01:04:32;3.70;99.90
8220;DHT22;4151;51.110;7.020;2023-02-25T01:06:58;3.70;99.90
8220;DHT22;4151;51.110;7.020;2023-02-25T01:09:24;3.70;99.90
8220;DHT22;4151;51.110;7.020;2023-02-25T01:11:50;3.70;99.90
8220;DHT22;4151;51.110;7.020;2023-02-25T01:14:18;3.70;99.90
8220;DHT22;4151;51.110;7.020;2023-02-25T01:16:45;3.70;99.90
8220;DHT22;4151;51.110;7.020;2023-02-25T01:19:14;3.70;99.90
8220;DHT22;4151;51.110;7.020;2023-02-25T01:21:44;3.70;99.90
8220;DHT22;4151;51.110;7.020;2023-02-25T01:24:13;3.70;99.90
8220;DHT22;4151;51.110;7.020;2023-02-25T01:26:40;3.70;99.90
8220;DHT22;4151;51.110;7.020;2023-02-25T01:29:12;3.70;99.90
8220;DHT22;4151;51.110;7.020;2023-02-25T01:31:38;3.70;99.90
8220;DHT22;4151;51.110;7.020;2023-02-25T01:34:06;3.70;99.90
8220;DHT22;4151;51.110;7.020;2023-02-25T01:36:33;3.70;99.90
8220;DHT22;4151;51.110;7.020;2023-02-25T01:38:59;3.70;99.90
8220;DHT22;4151;51.110;7.020;2023-02-25T01:41:27;3.70;99.90
8220;DHT22;4151;51.110;7.020;2023-02-25T01:46:38;3.70;99.90
8220;DHT22;4151;51.110;7.020;2023-02-25T01:49:11;3.70;99.90
8220;DHT22;4151;51.110;7.020;2023-02-25T01:51:38;3.70;99.90
8220;DHT22;4151;51.110;7.020;2023-02-25T01:54:06;3.70;99.90
8220;DHT22;4151;51.110;7.020;2023-02-25T01:56:36;3.70;99.90
8220;DHT22;4151;51.110;7.020;2023-02-25T01:59:02;3.70;99.90
8220;DHT22;4151;51.110;7.020;2023-02-25T02:01:31;3.70;99.90
8220;DHT22;4151;51.110;7.020;2023-02-25T02:03:58;3.70;99.90
8220;DHT22;4151;51.110;7.020;2023-02-25T02:06:32;3.70;99.90
8220;DHT22;4151;51.110;7.020;2023-02-25T02:09:00;3.70;99.90
8220;DHT22;4151;51.110;7.020;2023-02-25T02:11:25;3.70;99.90
8220;DHT22;4151;51.110;7.020;2023-02-25T02:13:55;3.70;99.90
8220;DHT22;4151;51.110;7.020;2023-02-25T02:31:37;3.60;99.90
8220;DHT22;4151;51.110;7.020;2023-02-25T02:39:26;3.60;99.90
8220;DHT22;4151;51.110;7.020;2023-02-25T02:44:41;3.60;99.90
8220;DHT22;4151;51.110;7.020;2023-02-25T02:47:11;3.60;99.90
8220;DHT22;4151;51.110;7.020;2023-02-25T02:49:46;3.60;99.90
8220;DHT22;4151;51.110;7.020;2023-02-25T02:52:18;3.70;99.90
8220;DHT22;4151;51.110;7.020;2023-02-25T02:54:50;3.70;99.90
8220;DHT22;4151;51.110;7.020;2023-02-25T02:57:19;3.70;99.90
8220;DHT22;4151;51.110;7.020;2023-02-25T02:59:51;3.70;99.90
8220;DHT22;4151;51.110;7.020;2023-02-25T03:02:31;3.70;99.90
8220;DHT22;4151;51.110;7.020;2023-02-25T03:05:02;3.70;99.90
8220;DHT22;4151;51.110;7.020;2023-02-25T03:07:30;3.70;99.90
8220;DHT22;4151;51.110;7.020;2023-02-25T03:09:59;3.60;99.90
8220;DHT22;4151;51.110;7.020;2023-02-25T03:12:27;3.60;99.90
8220;DHT22;4151;51.110;7.020;2023-02-25T03:14:55;3.70;99.90
8220;DHT22;4151;51.110;7.020;2023-02-25T03:17:26;3.70;99.90
8220;DHT22;4151;51.110;7.020;2023-02-25T03:20:01;3.60;99.90
8220;DHT22;4151;51.110;7.020;2023-02-25T03:22:32;3.60;99.90
8220;DHT22;4151;51.110;7.020;2023-02-25T03:27:47;3.70;99.90
8220;DHT22;4151;51.110;7.020;2023-02-25T03:30:36;3.60;99.90
8220;DHT22;4151;51.110;7.020;2023-02-25T03:33:14;3.70;99.90
8220;DHT22;4151;51.110;7.020;2023-02-25T03:35:41;3.70;99.90
8220;DHT22;4151;51.110;7.020;2023-02-25T03:38:11;3.60;99.90
8220;DHT22;4151;51.110;7.020;2023-02-25T03:40:39;3.60;99.90
8220;DHT22;4151;51.110;7.020;2023-02-25T03:43:08;3.60;99.90
8220;DHT22;4151;51.110;7.020;2023-02-25T03:45:36;3.60;99.90
8220;DHT22;4151;51.110;7.020;2023-02-25T03:48:03;3.60;99.90
8220;DHT22;4151;51.110;7.020;2023-02-25T03:50:36;3.50;99.90
8220;DHT22;4151;51.110;7.020;2023-02-25T03:53:04;3.50;99.90
8220;DHT22;4151;51.110;7.020;2023-02-25T03:55:30;3.50;99.90
8220;DHT22;4151;51.110;7.020;2023-02-25T03:57:56;3.50;99.90
8220;DHT22;4151;51.110;7.020;2023-02-25T04:00:26;3.60;99.90
8220;DHT22;4151;51.110;7.020;2023-02-25T04:02:53;3.60;99.90
8220;DHT22;4151;51.110;7.020;2023-02-25T04:05:21;3.60;99.90
8220;DHT22;4151;51.110;7.020;2023-02-25T04:07:46;3.60;99.90
8220;DHT22;4151;51.110;7.020;2023-02-25T04:10:14;3.60;99.90
8220;DHT22;4151;51.110;7.020;2023-02-25T04:12:40;3.60;99.90
8220;DHT22;4151;51.110;7.020;2023-02-25T04:15:07;3.60;99.90
8220;DHT22;4151;51.110;7.020;2023-02-25T04:17:34;3.60;99.90
8220;DHT22;4151;51.110;7.020;2023-02-25T04:20:00;3.60;99.90
8220;DHT22;4151;51.110;7.020;2023-02-25T04:22:25;3.60;99.90
8220;DHT22;4151;51.110;7.020;2023-02-25T04:24:51;3.60;99.90
8220;DHT22;4151;51.110;7.020;2023-02-25T04:27:17;3.70;99.90
8220;DHT22;4151;51.110;7.020;2023-02-25T04:29:43;3.70;99.90
8220;DHT22;4151;51.110;7.020;2023-02-25T04:32:10;3.70;99.90
8220;DHT22;4151;51.110;7.020;2023-02-25T04:34:35;3.70;99.90
8220;DHT22;4151;51.110;7.020;2023-02-25T04:37:01;3.70;99.90
8220;DHT22;4151;51.110;7.020;2023-02-25T04:39:29;3.70;99.90
8220;DHT22;4151;51.110;7.020;2023-02-25T04:41:55;3.70;99.90
8220;DHT22;4151;51.110;7.020;2023-02-25T04:44:21;3.70;99.90
8220;DHT22;4151;51.110;7.020;2023-02-25T04:46:46;3.70;99.90
8220;DHT22;4151;51.110;7.020;2023-02-25T04:49:17;3.70;99.90
8220;DHT22;4151;51.110;7.020;2023-02-25T04:51:43;3.70;99.90
8220;DHT22;4151;51.110;7.020;2023-02-25T04:54:10;3.70;99.90
8220;DHT22;4151;51.110;7.020;2023-02-25T04:56:37;3.70;99.90
8220;DHT22;4151;51.110;7.020;2023-02-25T04:59:03;3.70;99.90
8220;DHT22;4151;51.110;7.020;2023-02-25T05:01:29;3.70;99.90
8220;DHT22;4151;51.110;7.020;2023-02-25T05:03:59;3.70;99.90
8220;DHT22;4151;51.110;7.020;2023-02-25T05:06:27;3.70;99.90
8220;DHT22;4151;51.110;7.020;2023-02-25T05:08:54;3.70;99.90
8220;DHT22;4151;51.110;7.020;2023-02-25T05:11:23;3.70;99.90
8220;DHT22;4151;51.110;7.020;2023-02-25T05:13:50;3.70;99.90
8220;DHT22;4151;51.110;7.020;2023-02-25T05:16:17;3.70;99.90
8220;DHT22;4151;51.110;7.020;2023-02-25T05:18:44;3.70;99.90
8220;DHT22;4151;51.110;7.020;2023-02-25T05:21:16;3.70;99.90
8220;DHT22;4151;51.110;7.020;2023-02-25T05:23:43;3.70;99.90
8220;DHT22;4151;51.110;7.020;2023-02-25T05:26:10;3.70;99.90
8220;DHT22;4151;51.110;7.020;2023-02-25T05:28:36;3.70;99.90
8220;DHT22;4151;51.110;7.020;2023-02-25T05:31:10;3.70;99.90
8220;DHT22;4151;51.110;7.020;2023-02-25T05:33:37;3.70;99.90
8220;DHT22;4151;51.110;7.020;2023-02-25T05:36:07;3.70;99.90
8220;DHT22;4151;51.110;7.020;2023-02-25T05:38:34;3.60;99.90
8220;DHT22;4151;51.110;7.020;2023-02-25T05:41:00;3.70;99.90
8220;DHT22;4151;51.110;7.020;2023-02-25T05:43:26;3.60;99.90
8220;DHT22;4151;51.110;7.020;2023-02-25T05:45:53;3.60;99.90
8220;DHT22;4151;51.110;7.020;2023-02-25T05:48:19;3.50;99.90
8220;DHT22;4151;51.110;7.020;2023-02-25T05:50:44;3.50;99.90
8220;DHT22;4151;51.110;7.020;2023-02-25T05:53:10;3.50;99.90
8220;DHT22;4151;51.110;7.020;2023-02-25T05:55:43;3.50;99.90
8220;DHT22;4151;51.110;7.020;2023-02-25T05:58:09;3.50;99.90
8220;DHT22;4151;51.110;7.020;2023-02-25T06:00:36;3.50;99.90
8220;DHT22;4151;51.110;7.020;2023-02-25T06:03:02;3.50;99.90
8220;DHT22;4151;51.110;7.020;2023-02-25T06:05:27;3.40;99.90
8220;DHT22;4151;51.110;7.020;2023-02-25T06:07:56;3.50;99.90
8220;DHT22;4151;51.110;7.020;2023-02-25T06:10:22;3.50;99.90
8220;DHT22;4151;51.110;7.020;2023-02-25T06:12:47;3.50;99.90
8220;DHT22;4151;51.110;7.020;2023-02-25T06:15:13;3.50;99.90
8220;DHT22;4151;51.110;7.020;2023-02-25T06:17:39;3.50;99.90
8220;DHT22;4151;51.110;7.020;2023-02-25T06:20:05;3.50;99.90
8220;DHT22;4151;51.110;7.020;2023-02-25T06:22:31;3.50;99.90
8220;DHT22;4151;51.110;7.020;2023-02-25T06:24:57;3.50;99.90
8220;DHT22;4151;51.110;7.020;2023-02-25T06:27:22;3.60;99.90
8220;DHT22;4151;51.110;7.020;2023-02-25T06:29:48;3.50;99.90
8220;DHT22;4151;51.110;7.020;2023-02-25T06:32:14;3.60;99.90
8220;DHT22;4151;51.110;7.020;2023-02-25T06:34:39;3.60;99.90
8220;DHT22;4151;51.110;7.020;2023-02-25T06:37:06;3.60;99.90
8220;DHT22;4151;51.110;7.020;2023-02-25T06:39:31;3.60;99.90
8220;DHT22;4151;51.110;7.020;2023-02-25T06:41:57;3.60;99.90
8220;DHT22;4151;51.110;7.020;2023-02-25T06:44:22;3.60;99.90
8220;DHT22;4151;51.110;7.020;2023-02-25T06:46:51;3.60;99.90
8220;DHT22;4151;51.110;7.020;2023-02-25T06:49:20;3.60;99.90
8220;DHT22;4151;51.110;7.020;2023-02-25T06:51:45;3.70;99.90
8220;DHT22;4151;51.110;7.020;2023-02-25T06:54:13;3.70;99.90
8220;DHT22;4151;51.110;7.020;2023-02-25T06:56:38;3.70;99.90
8220;DHT22;4151;51.110;7.020;2023-02-25T06:59:04;3.70;99.90
8220;DHT22;4151;51.110;7.020;2023-02-25T07:01:29;3.70;99.90
8220;DHT22;4151;51.110;7.020;2023-02-25T07:03:55;3.70;99.90
8220;DHT22;4151;51.110;7.020;2023-02-25T07:06:21;3.70;99.90
8220;DHT22;4151;51.110;7.020;2023-02-25T07:08:46;3.70;99.90
8220;DHT22;4151;51.110;7.020;2023-02-25T07:13:41;3.80;99.90
8220;DHT22;4151;51.110;7.020;2023-02-25T07:16:08;3.80;99.90
8220;DHT22;4151;51.110;7.020;2023-02-25T07:18:33;3.90;99.90
8220;DHT22;4151;51.110;7.020;2023-02-25T07:20:59;3.90;99.90
8220;DHT22;4151;51.110;7.020;2023-02-25T07:23:24;3.90;99.90
8220;DHT22;4151;51.110;7.020;2023-02-25T07:25:50;3.90;99.90
8220;DHT22;4151;51.110;7.020;2023-02-25T07:28:15;4.00;99.90
8220;DHT22;4151;51.110;7.020;2023-02-25T07:30:41;4.00;99.90
8220;DHT22;4151;51.110;7.020;2023-02-25T07:33:06;3.90;99.90
8220;DHT22;4151;51.110;7.020;2023-02-25T07:35:33;4.00;99.90
8220;DHT22;4151;51.110;7.020;2023-02-25T07:37:58;4.00;99.90
8220;DHT22;4151;51.110;7.020;2023-02-25T07:40:24;4.00;99.90
8220;DHT22;4151;51.110;7.020;2023-02-25T07:42:49;4.10;99.90
8220;DHT22;4151;51.110;7.020;2023-02-25T07:45:15;4.10;99.90
8220;DHT22;4151;51.110;7.020;2023-02-25T07:47:41;4.20;99.90
8220;DHT22;4151;51.110;7.020;2023-02-25T07:50:09;4.20;99.90
8220;DHT22;4151;51.110;7.020;2023-02-25T07:52:35;4.20;99.90
8220;DHT22;4151;51.110;7.020;2023-02-25T07:55:04;4.30;99.90
8220;DHT22;4151;51.110;7.020;2023-02-25T07:57:30;4.30;99.90
8220;DHT22;4151;51.110;7.020;2023-02-25T07:59:56;4.40;99.90
8220;DHT22;4151;51.110;7.020;2023-02-25T08:02:23;4.40;99.90
8220;DHT22;4151;51.110;7.020;2023-02-25T08:04:49;4.40;99.90
8220;DHT22;4151;51.110;7.020;2023-02-25T08:07:14;4.40;99.90
8220;DHT22;4151;51.110;7.020;2023-02-25T08:09:40;4.40;99.90
8220;DHT22;4151;51.110;7.020;2023-02-25T08:12:06;4.50;99.90
8220;DHT22;4151;51.110;7.020;2023-02-25T08:14:32;4.50;99.90
8220;DHT22;4151;51.110;7.020;2023-02-25T08:16:57;4.50;99.90
8220;DHT22;4151;51.110;7.020;2023-02-25T08:19:23;4.60;99.90
8220;DHT22;4151;51.110;7.020;2023-02-25T08:21:48;4.50;99.90
8220;DHT22;4151;51.110;7.020;2023-02-25T08:24:14;4.30;99.90
8220;DHT22;4151;51.110;7.020;2023-02-25T08:26:40;4.20;99.90
8220;DHT22;4151;51.110;7.020;2023-02-25T08:29:06;4.10;99.90
8220;DHT22;4151;51.110;7.020;2023-02-25T08:31:32;4.10;99.90
8220;DHT22;4151;51.110;7.020;2023-02-25T08:33:58;4.00;99.90
8220;DHT22;4151;51.110;7.020;2023-02-25T08:36:27;3.90;99.90
8220;DHT22;4151;51.110;7.020;2023-02-25T08:38:53;3.80;99.90
8220;DHT22;4151;51.110;7.020;2023-02-25T08:41:20;3.80;99.90
8220;DHT22;4151;51.110;7.020;2023-02-25T08:43:50;3.80;99.90
8220;DHT22;4151;51.110;7.020;2023-02-25T08:46:16;3.80;99.90
8220;DHT22;4151;51.110;7.020;2023-02-25T08:48:42;3.80;99.90
8220;DHT22;4151;51.110;7.020;2023-02-25T08:51:09;3.80;99.90
8220;DHT22;4151;51.110;7.020;2023-02-25T08:53:38;3.90;99.90
8220;DHT22;4151;51.110;7.020;2023-02-25T08:56:06;3.90;99.90
8220;DHT22;4151;51.110;7.020;2023-02-25T08:58:31;4.00;99.90
8220;DHT22;4151;51.110;7.020;2023-02-25T09:00:57;4.00;99.90
8220;DHT22;4151;51.110;7.020;2023-02-25T09:03:23;3.90;99.90
8220;DHT22;4151;51.110;7.020;2023-02-25T09:05:55;3.90;99.90
8220;DHT22;4151;51.110;7.020;2023-02-25T09:08:21;3.90;99.90
8220;DHT22;4151;51.110;7.020;2023-02-25T09:10:47;3.90;99.90
8220;DHT22;4151;51.110;7.020;2023-02-25T09:13:13;4.00;99.90
8220;DHT22;4151;51.110;7.020;2023-02-25T09:15:39;4.00;99.90
8220;DHT22;4151;51.110;7.020;2023-02-25T09:18:04;3.90;99.90
8220;DHT22;4151;51.110;7.020;2023-02-25T09:20:30;3.90;99.90
8220;DHT22;4151;51.110;7.020;2023-02-25T09:22:56;3.90;99.90
8220;DHT22;4151;51.110;7.020;2023-02-25T09:25:22;4.00;99.90
8220;DHT22;4151;51.110;7.020;2023-02-25T09:27:48;4.10;99.90
8220;DHT22;4151;51.110;7.020;2023-02-25T09:30:14;4.30;99.90
8220;DHT22;4151;51.110;7.020;2023-02-25T09:32:39;4.40;99.90
8220;DHT22;4151;51.110;7.020;2023-02-25T09:35:05;4.50;99.90
8220;DHT22;4151;51.110;7.020;2023-02-25T09:37:32;4.70;99.90
8220;DHT22;4151;51.110;7.020;2023-02-25T09:39:58;4.80;99.90
8220;DHT22;4151;51.110;7.020;2023-02-25T09:42:30;4.90;99.90
8220;DHT22;4151;51.110;7.020;2023-02-25T09:44:59;5.10;99.90
8220;DHT22;4151;51.110;7.020;2023-02-25T09:47:44;5.40;99.90
8220;DHT22;4151;51.110;7.020;2023-02-25T09:50:11;5.50;99.90
8220;DHT22;4151;51.110;7.020;2023-02-25T09:52:41;5.50;99.90
8220;DHT22;4151;51.110;7.020;2023-02-25T09:55:19;5.40;99.90
8220;DHT22;4151;51.110;7.020;2023-02-25T09:57:55;5.50;99.90
8220;DHT22;4151;51.110;7.020;2023-02-25T10:00:22;5.50;99.90
8220;DHT22;4151;51.110;7.020;2023-02-25T10:02:54;5.80;99.90
8220;DHT22;4151;51.110;7.020;2023-02-25T10:05:30;6.10;99.90
8220;DHT22;4151;51.110;7.020;2023-02-25T10:08:14;6.30;99.90
8220;DHT22;4151;51.110;7.020;2023-02-25T10:11:06;6.30;99.90
8220;DHT22;4151;51.110;7.020;2023-02-25T10:14:02;6.20;99.90
8220;DHT22;4151;51.110;7.020;2023-02-25T10:19:53;6.30;99.90
8220;DHT22;4151;51.110;7.020;2023-02-25T10:24:53;6.00;99.90
8220;DHT22;4151;51.110;7.020;2023-02-25T10:27:28;5.90;99.90
8220;DHT22;4151;51.110;7.020;2023-02-25T10:30:30;6.00;99.90
8220;DHT22;4151;51.110;7.020;2023-02-25T10:33:18;5.90;99.90
8220;DHT22;4151;51.110;7.020;2023-02-25T10:35:47;5.80;99.90
8220;DHT22;4151;51.110;7.020;2023-02-25T10:38:13;5.70;99.90
8220;DHT22;4151;51.110;7.020;2023-02-25T10:40:39;5.60;99.90
8220;DHT22;4151;51.110;7.020;2023-02-25T10:43:23;5.20;99.90
8220;DHT22;4151;51.110;7.020;2023-02-25T10:45:55;4.60;99.90
8220;DHT22;4151;51.110;7.020;2023-02-25T10:48:23;4.30;99.90
8220;DHT22;4151;51.110;7.020;2023-02-25T10:51:11;4.20;99.90
8220;DHT22;4151;51.110;7.020;2023-02-25T10:54:00;4.20;99.90
8220;DHT22;4151;51.110;7.020;2023-02-25T10:56:26;4.20;99.90
8220;DHT22;4151;51.110;7.020;2023-02-25T10:59:23;4.40;99.90
8220;DHT22;4151;51.110;7.020;2023-02-25T11:01:50;4.50;99.90
8220;DHT22;4151;51.110;7.020;2023-02-25T11:04:22;4.50;99.90
8220;DHT22;4151;51.110;7.020;2023-02-25T11:06:47;4.50;99.90
8220;DHT22;4151;51.110;7.020;2023-02-25T11:12:20;4.60;99.90
8220;DHT22;4151;51.110;7.020;2023-02-25T11:14:46;4.80;99.90
8220;DHT22;4151;51.110;7.020;2023-02-25T11:17:17;4.90;99.90
8220;DHT22;4151;51.110;7.020;2023-02-25T11:19:49;5.30;99.90
8220;DHT22;4151;51.110;7.020;2023-02-25T11:22:23;6.10;99.90
8220;DHT22;4151;51.110;7.020;2023-02-25T11:24:58;7.30;99.90
8220;DHT22;4151;51.110;7.020;2023-02-25T11:27:36;8.80;99.90
8220;DHT22;4151;51.110;7.020;2023-02-25T11:30:29;9.80;99.90
8220;DHT22;4151;51.110;7.020;2023-02-25T11:32:54;10.30;99.90
8220;DHT22;4151;51.110;7.020;2023-02-25T11:44:41;7.90;99.90
8220;DHT22;4151;51.110;7.020;2023-02-25T11:47:22;7.30;99.90
8220;DHT22;4151;51.110;7.020;2023-02-25T11:52:54;7.20;99.90
8220;DHT22;4151;51.110;7.020;2023-02-25T12:03:33;9.10;99.90
8220;DHT22;4151;51.110;7.020;2023-02-25T12:14:57;7.30;99.90
8220;DHT22;4151;51.110;7.020;2023-02-25T12:18:02;6.80;99.90
8220;DHT22;4151;51.110;7.020;2023-02-25T12:28:58;7.40;99.90
8220;DHT22;4151;51.110;7.020;2023-02-25T12:31:55;9.20;99.90
8220;DHT22;4151;51.110;7.020;2023-02-25T12:34:58;10.80;99.90
8220;DHT22;4151;51.110;7.020;2023-02-25T12:37:47;11.20;99.90
8220;DHT22;4151;51.110;7.020;2023-02-25T12:43:14;12.00;99.90
8220;DHT22;4151;51.110;7.020;2023-02-25T12:57:45;6.20;99.90
8220;DHT22;4151;51.110;7.020;2023-02-25T13:00:40;5.70;99.90
8220;DHT22;4151;51.110;7.020;2023-02-25T13:03:32;5.50;99.90
8220;DHT22;4151;51.110;7.020;2023-02-25T13:09:22;5.80;99.90
8220;DHT22;4151;51.110;7.020;2023-02-25T13:12:11;6.10;99.90
8220;DHT22;4151;51.110;7.020;2023-02-25T13:28:57;10.70;99.90
8220;DHT22;4151;51.110;7.020;2023-02-25T13:31:42;11.20;99.90
8220;DHT22;4151;51.110;7.020;2023-02-25T13:34:45;11.90;99.90
8220;DHT22;4151;51.110;7.020;2023-02-25T13:37:36;12.50;99.90
8220;DHT22;4151;51.110;7.020;2023-02-25T13:45:48;11.40;99.90
8220;DHT22;4151;51.110;7.020;2023-02-25T13:51:22;9.10;99.90
8220;DHT22;4151;51.110;7.020;2023-02-25T14:17:39;12.60;99.90
8220;DHT22;4151;51.110;7.020;2023-02-25T14:22:58;12.20;99.90
8220;DHT22;4151;51.110;7.020;2023-02-25T14:39:04;12.70;99.90
8220;DHT22;4151;51.110;7.020;2023-02-25T14:45:12;12.60;99.90
8220;DHT22;4151;51.110;7.020;2023-02-25T14:50:29;13.10;98.50
8220;DHT22;4151;51.110;7.020;2023-02-25T14:56:22;12.50;98.30
8220;DHT22;4151;51.110;7.020;2023-02-25T15:10:16;14.90;90.70
8220;DHT22;4151;51.110;7.020;2023-02-25T15:13:06;13.40;91.00
8220;DHT22;4151;51.110;7.020;2023-02-25T15:18:47;11.80;94.80
8220;DHT22;4151;51.110;7.020;2023-02-25T15:21:35;12.30;93.30
8220;DHT22;4151;51.110;7.020;2023-02-25T15:24:34;12.70;93.00
8220;DHT22;4151;51.110;7.020;2023-02-25T15:26:54;13.10;91.90
8220;DHT22;4151;51.110;7.020;2023-02-25T15:35:00;12.40;94.00
8220;DHT22;4151;51.110;7.020;2023-02-25T15:37:27;13.00;94.50
8220;DHT22;4151;51.110;7.020;2023-02-25T15:42:44;12.70;92.70
8220;DHT22;4151;51.110;7.020;2023-02-25T15:55:39;13.00;91.40
8220;DHT22;4151;51.110;7.020;2023-02-25T16:03:38;12.90;92.00
8220;DHT22;4151;51.110;7.020;2023-02-25T16:06:14;13.10;88.20
8220;DHT22;4151;51.110;7.020;2023-02-25T16:11:36;13.10;90.10
8220;DHT22;4151;51.110;7.020;2023-02-25T16:14:32;13.00;89.20
8220;DHT22;4151;51.110;7.020;2023-02-25T16:17:19;12.20;90.20
8220;DHT22;4151;51.110;7.020;2023-02-25T16:19:55;11.90;90.80
8220;DHT22;4151;51.110;7.020;2023-02-25T16:22:24;12.10;90.30
8220;DHT22;4151;51.110;7.020;2023-02-25T16:24:53;11.90;90.70
8220;DHT22;4151;51.110;7.020;2023-02-25T16:36:35;12.00;90.40
8220;DHT22;4151;51.110;7.020;2023-02-25T16:39:23;11.30;92.30
8220;DHT22;4151;51.110;7.020;2023-02-25T16:41:51;10.60;92.70
8220;DHT22;4151;51.110;7.020;2023-02-25T16:44:26;8.90;94.00
8220;DHT22;4151;51.110;7.020;2023-02-25T16:46:53;7.80;96.20
8220;DHT22;4151;51.110;7.020;2023-02-25T16:49:39;7.10;99.10
8220;DHT22;4151;51.110;7.020;2023-02-25T16:52:14;6.40;99.90
8220;DHT22;4151;51.110;7.020;2023-02-25T16:54:41;5.90;99.90
8220;DHT22;4151;51.110;7.020;2023-02-25T16:57:19;5.60;99.90
8220;DHT22;4151;51.110;7.020;2023-02-25T16:59:45;5.40;99.90
8220;DHT22;4151;51.110;7.020;2023-02-25T17:04:51;5.00;99.90
8220;DHT22;4151;51.110;7.020;2023-02-25T17:07:28;4.80;99.90
8220;DHT22;4151;51.110;7.020;2023-02-25T17:12:34;4.40;99.90
8220;DHT22;4151;51.110;7.020;2023-02-25T17:15:03;4.20;99.90
8220;DHT22;4151;51.110;7.020;2023-02-25T17:17:33;4.10;99.90
8220;DHT22;4151;51.110;7.020;2023-02-25T17:20:03;3.90;99.90
8220;DHT22;4151;51.110;7.020;2023-02-25T17:22:31;3.80;99.90
8220;DHT22;4151;51.110;7.020;2023-02-25T17:24:58;3.70;99.90
8220;DHT22;4151;51.110;7.020;2023-02-25T17:27:25;3.60;99.90
8220;DHT22;4151;51.110;7.020;2023-02-25T17:29:51;3.40;99.90
8220;DHT22;4151;51.110;7.020;2023-02-25T17:32:21;3.30;99.90
8220;DHT22;4151;51.110;7.020;2023-02-25T17:34:48;3.20;99.90
8220;DHT22;4151;51.110;7.020;2023-02-25T17:37:15;3.20;99.90
8220;DHT22;4151;51.110;7.020;2023-02-25T17:39:41;3.10;99.90
8220;DHT22;4151;51.110;7.020;2023-02-25T17:42:28;3.10;99.90
8220;DHT22;4151;51.110;7.020;2023-02-25T17:44:54;3.10;99.90
8220;DHT22;4151;51.110;7.020;2023-02-25T17:47:24;3.00;99.90
8220;DHT22;4151;51.110;7.020;2023-02-25T17:49:51;3.00;99.90
8220;DHT22;4151;51.110;7.020;2023-02-25T17:52:21;3.00;99.90
8220;DHT22;4151;51.110;7.020;2023-02-25T17:54:56;2.90;99.90
8220;DHT22;4151;51.110;7.020;2023-02-25T17:57:24;2.80;99.90
8220;DHT22;4151;51.110;7.020;2023-02-25T17:59:55;2.70;99.90
8220;DHT22;4151;51.110;7.020;2023-02-25T18:04:48;2.60;99.90
8220;DHT22;4151;51.110;7.020;2023-02-25T18:07:29;2.50;99.90
8220;DHT22;4151;51.110;7.020;2023-02-25T18:09:57;2.50;99.90
8220;DHT22;4151;51.110;7.020;2023-02-25T18:12:28;2.40;99.90
8220;DHT22;4151;51.110;7.020;2023-02-25T18:15:16;2.40;99.90
8220;DHT22;4151;51.110;7.020;2023-02-25T18:17:47;2.30;99.90
8220;DHT22;4151;51.110;7.020;2023-02-25T18:22:52;2.10;99.90
8220;DHT22;4151;51.110;7.020;2023-02-25T18:26:28;2.00;99.90
8220;DHT22;4151;51.110;7.020;2023-02-25T18:28:23;2.00;99.90
8220;DHT22;4151;51.110;7.020;2023-02-25T18:30:49;1.80;99.90
8220;DHT22;4151;51.110;7.020;2023-02-25T18:33:16;1.70;99.90
8220;DHT22;4151;51.110;7.020;2023-02-25T18:35:43;1.60;99.90
8220;DHT22;4151;51.110;7.020;2023-02-25T18:38:23;1.60;99.90
8220;DHT22;4151;51.110;7.020;2023-02-25T18:40:50;1.60;99.90
8220;DHT22;4151;51.110;7.020;2023-02-25T18:43:21;1.60;99.90
8220;DHT22;4151;51.110;7.020;2023-02-25T18:45:48;1.60;99.90
8220;DHT22;4151;51.110;7.020;2023-02-25T18:48:14;1.70;99.90
8220;DHT22;4151;51.110;7.020;2023-02-25T18:50:40;1.70;99.90
8220;DHT22;4151;51.110;7.020;2023-02-25T18:53:19;1.70;99.90
8220;DHT22;4151;51.110;7.020;2023-02-25T18:55:45;1.70;99.90
8220;DHT22;4151;51.110;7.020;2023-02-25T18:58:15;1.60;99.90
8220;DHT22;4151;51.110;7.020;2023-02-25T19:00:42;1.60;99.90
8220;DHT22;4151;51.110;7.020;2023-02-25T19:03:13;1.50;99.90
8220;DHT22;4151;51.110;7.020;2023-02-25T19:05:40;1.60;99.90
8220;DHT22;4151;51.110;7.020;2023-02-25T19:08:13;1.60;99.90
8220;DHT22;4151;51.110;7.020;2023-02-25T19:10:39;1.60;99.90
8220;DHT22;4151;51.110;7.020;2023-02-25T19:13:14;1.60;99.90
8220;DHT22;4151;51.110;7.020;2023-02-25T19:15:40;1.60;99.90
8220;DHT22;4151;51.110;7.020;2023-02-25T19:18:10;1.50;99.90
8220;DHT22;4151;51.110;7.020;2023-02-25T19:20:36;1.60;99.90
8220;DHT22;4151;51.110;7.020;2023-02-25T19:23:01;1.60;99.90
8220;DHT22;4151;51.110;7.020;2023-02-25T19:25:32;1.60;99.90
8220;DHT22;4151;51.110;7.020;2023-02-25T19:27:58;1.50;99.90
8220;DHT22;4151;51.110;7.020;2023-02-25T19:30:30;1.50;99.90
8220;DHT22;4151;51.110;7.020;2023-02-25T19:32:58;1.50;99.90
8220;DHT22;4151;51.110;7.020;2023-02-25T19:35:28;1.50;99.90
8220;DHT22;4151;51.110;7.020;2023-02-25T19:37:54;1.40;99.90
8220;DHT22;4151;51.110;7.020;2023-02-25T19:40:19;1.40;99.90
8220;DHT22;4151;51.110;7.020;2023-02-25T19:42:45;1.30;99.90
8220;DHT22;4151;51.110;7.020;2023-02-25T19:45:14;1.20;99.90
8220;DHT22;4151;51.110;7.020;2023-02-25T19:47:40;1.10;99.90
8220;DHT22;4151;51.110;7.020;2023-02-25T19:50:08;1.00;99.90
8220;DHT22;4151;51.110;7.020;2023-02-25T19:52:34;1.00;99.90
8220;DHT22;4151;51.110;7.020;2023-02-25T19:55:00;0.90;99.90
8220;DHT22;4151;51.110;7.020;2023-02-25T19:57:26;0.80;99.90
8220;DHT22;4151;51.110;7.020;2023-02-25T19:59:51;0.80;99.90
8220;DHT22;4151;51.110;7.020;2023-02-25T20:02:17;0.80;99.90
8220;DHT22;4151;51.110;7.020;2023-02-25T20:04:42;0.70;99.90
8220;DHT22;4151;51.110;7.020;2023-02-25T20:07:08;0.70;99.90
8220;DHT22;4151;51.110;7.020;2023-02-25T20:09:34;0.60;99.90
8220;DHT22;4151;51.110;7.020;2023-02-25T20:11:59;0.50;99.90
8220;DHT22;4151;51.110;7.020;2023-02-25T20:14:26;0.50;99.90
8220;DHT22;4151;51.110;7.020;2023-02-25T20:16:53;0.40;99.90
8220;DHT22;4151;51.110;7.020;2023-02-25T20:19:19;0.40;99.90
8220;DHT22;4151;51.110;7.020;2023-02-25T20:21:44;0.30;99.90
8220;DHT22;4151;51.110;7.020;2023-02-25T20:24:10;0.30;99.90